KCVG/CVG METAR and TAF weather

Enter ICAO airport designator
Station Type Date Time Source
KCVG METAR 2018/09/21 22:52 UTC NOAA

KCVG 212252Z 20009KT 10SM FEW070 BKN120 BKN250 24/21 A3001 RMK AO2 LTG DSNT S AND SW RAB06E16 SLP151 P0000 T02390206


Station Type Date Time Source
KCVG Decoded METAR 2018/09/21 22:52 UTC NOAA

CINCINNATI/NORTHERN KY INTERNATIONAL , KY, United States (KCVG) 39-03N 084-40W 269M
Sep 21, 2018 - 06:52 PM EDT / 2018.09.21 2252 UTC
Wind: from the SSW (200 degrees) at 10 MPH (9 KT):0
Visibility: 10 mile(s):0
Sky conditions: mostly cloudy
Weather: Lightning observed
Precipitation last hour: A trace
Temperature: 75.0 F (23.9 C)
Dew Point: 69.1 F (20.6 C)
Relative Humidity: 81%
Pressure (altimeter): 30.01 in. Hg (1016 hPa)
ob: KCVG 212252Z 20009KT 10SM FEW070 BKN120 BKN250 24/21 A3001 RMK AO2 LTG DSNT S AND SW RAB06E16 SLP151 P0000 T02390206
cycle: 23

Station Type Date Time Source
KCVG TAF 2018/09/21 21:04 UTC NOAA

TAF
AMD KCVG 212102Z 2121/2224 22007KT P6SM VCTS FEW026CB BKN110 BKN200
FM220000 30009KT P6SM VCSH BKN040 BKN100
FM220200 30008KT P6SM SCT040 BKN200
FM220400 36008KT P6SM BKN200
FM221200 04008KT P6SM BKN200


Example: see airport list